Time;durP1;ratioP1;P1;durP2;ratioP2;P2;SDS_P1;SDS_P2;PMS_P1;PMS_P2;Temp;Humidity;BMP_temperature;BMP_pressure;BME280_temperature;BME280_humidity;BME280_pressure;Samples;Min_cycle;Max_cycle;Signal;HPM_P1;HPM_P2
2023/12/10 00:00:41;;;;;;;0.90;0.60;;;;;;;16.87;59.32;98231.59;2068392;28;20073;-67
2023/12/10 00:01:44;;;;;;;;;;;;;;;16.78;59.39;98227.44;2075186;28;20115;-68
2023/12/10 00:02:45;;;;;;;0.60;0.60;;;;;;;16.80;59.41;98226.22;2069965;28;20016;-67
2023/12/10 00:03:47;;;;;;;;;;;;;;;16.71;59.55;98222.84;2068150;28;20049;-67
2023/12/10 00:04:48;;;;;;;0.65;0.65;;;;;;;16.78;59.68;98214.88;2068980;28;20295;-67
2023/12/10 00:05:49;;;;;;;;;;;;;;;16.72;59.58;98213.81;2069332;28;20049;-66
2023/12/10 00:06:50;;;;;;;;;;;;;;;16.69;59.58;98210.72;2067866;28;19922;-67
2023/12/10 00:07:52;;;;;;;0.95;0.75;;;;;;;16.75;59.64;98213.41;2068145;28;19929;-67
2023/12/10 00:08:53;;;;;;;1.08;0.85;;;;;;;16.79;59.40;98211.16;2075085;28;20121;-66
2023/12/10 00:09:55;;;;;;;;;;;;;;;16.71;59.49;98201.41;2066984;28;20416;-67
2023/12/10 00:10:56;;;;;;;0.47;0.47;;;;;;;16.79;59.28;98215.69;2074959;28;19925;-65
2023/12/10 00:11:57;;;;;;;;;;;;;;;16.70;59.60;98204.31;2068070;28;20133;-66
2023/12/10 00:12:58;;;;;;;0.70;0.70;;;;;;;16.77;59.42;98209.72;2068118;28;20285;-67
2023/12/10 00:14:01;;;;;;;;;;;;;;;16.68;59.62;98212.53;2068850;28;20048;-67
2023/12/10 00:15:03;;;;;;;0.93;0.63;;;;;;;16.73;59.54;98218.13;2066645;28;21789;-67
2023/12/10 00:16:05;;;;;;;1.08;0.82;;;;;;;16.75;59.41;98213.41;2076115;28;20153;-68
2023/12/10 00:17:08;;;;;;;0.60;0.60;;;;;;;16.84;59.17;98215.94;2067237;28;20497;-67
2023/12/10 00:18:09;;;;;;;0.75;0.55;;;;;;;16.82;59.21;98207.25;2069461;28;20052;-68
2023/12/10 00:19:11;;;;;;;;;;;;;;;16.72;59.35;98212.97;2068322;28;20044;-67
2023/12/10 00:20:12;;;;;;;0.60;0.57;;;;;;;16.75;59.39;98223.28;2064860;28;20986;-67
2023/12/10 00:21:14;;;;;;;;;;;;;;;16.68;59.50;98217.06;2066493;28;20049;-67
2023/12/10 00:22:15;;;;;;;0.85;0.60;;;;;;;16.72;59.45;98213.81;2075561;28;19935;-66
2023/12/10 00:23:17;;;;;;;;;;;;;;;16.66;59.55;98213.75;2070090;28;20045;-67
2023/12/10 00:24:18;;;;;;;0.70;0.50;;;;;;;16.70;59.43;98218.53;2071630;28;19921;-65
2023/12/10 00:25:19;;;;;;;;;;;;;;;16.64;59.58;98211.31;2075047;28;20092;-67
2023/12/10 00:26:20;;;;;;;;;;;;;;;16.56;59.79;98214.16;2076295;28;19975;-67
2023/12/10 00:27:22;;;;;;;0.80;0.60;;;;;;;16.61;59.63;98219.75;2075348;28;20572;-67
2023/12/10 00:28:23;;;;;;;0.68;0.68;;;;;;;16.68;59.51;98214.41;2077686;28;20431;-68
2023/12/10 00:29:24;;;;;;;;;;;;;;;16.62;59.63;98209.84;2072084;28;20061;-67
2023/12/10 00:30:26;;;;;;;0.82;0.70;;;;;;;16.63;59.49;98201.63;2067549;28;19940;-68
2023/12/10 00:31:27;;;;;;;0.75;0.55;;;;;;;16.69;59.26;98203.50;2068689;28;20584;-68
2023/12/10 00:32:30;;;;;;;;;;;;;;;16.62;59.52;98202.63;2069315;28;20050;-68
2023/12/10 00:33:31;;;;;;;0.40;0.40;;;;;;;16.64;59.53;98200.59;2066615;28;19933;-67
2023/12/10 00:34:33;;;;;;;;;;;;;;;16.57;59.60;98197.06;2072867;28;20042;-66
2023/12/10 00:35:34;;;;;;;;;;;;;;;16.51;59.79;98196.00;2074212;28;19943;-68
2023/12/10 00:36:36;;;;;;;0.80;0.60;;;;;;;16.59;59.72;98196.88;2069021;28;19922;-68
2023/12/10 00:37:37;;;;;;;1.83;0.82;;;;;;;16.61;59.67;98195.66;2066425;28;20049;-67
2023/12/10 00:38:39;;;;;;;;;;;;;;;16.54;59.66;98189.44;2066348;28;20073;-69
2023/12/10 00:39:40;;;;;;;0.43;0.40;;;;;;;16.57;59.56;98181.00;2069175;28;19929;-69
2023/12/10 00:40:41;;;;;;;;;;;;;;;16.54;59.65;98189.44;2069570;28;20052;-69
2023/12/10 00:41:42;;;;;;;;;;;;;;;16.48;59.77;98184.88;2068464;28;20281;-69
2023/12/10 00:42:44;;;;;;;0.82;0.70;;;;;;;16.53;59.57;98183.25;2073886;28;19970;-69
2023/12/10 00:43:45;;;;;;;1.65;1.10;;;;;;;16.58;59.70;98176.50;2070576;28;20046;-68
2023/12/10 00:44:47;;;;;;;;;;;;;;;16.46;59.65;98160.97;2067840;28;20053;-69
2023/12/10 00:45:47;;;;;;;;;;;;;;;16.39;59.97;98173.53;2073683;28;19921;-71
2023/12/10 00:46:49;;;;;;;0.60;0.60;;;;;;;16.46;59.86;98171.69;2076938;28;19920;-70
2023/12/10 00:47:52;;;;;;;1.27;0.70;;;;;;;16.53;59.63;98156.47;2075062;28;20042;-69
2023/12/10 00:48:54;;;;;;;0.40;0.40;;;;;;;16.58;59.38;98144.38;2069607;28;20052;-70
2023/12/10 00:49:54;;;;;;;0.70;0.60;;;;;;;16.58;59.38;98136.31;2074502;28;20100;-68
2023/12/10 00:50:56;;;;;;;;;;;;;;;16.49;59.56;98157.06;2066283;28;20054;-69
2023/12/10 00:52:00;;;;;;;0.75;0.60;;;;;;;16.52;59.51;98178.94;2075560;28;20001;-70
2023/12/10 00:53:04;;;;;;;0.40;0.40;;;;;;;16.56;59.51;98143.72;2066847;28;20125;-69
2023/12/10 00:54:06;;;;;;;0.60;0.60;;;;;;;16.56;59.47;98138.38;2077333;28;20045;-69
2023/12/10 00:55:10;;;;;;;0.50;0.50;;;;;;;16.56;59.44;98157.13;2075002;28;20046;-70
2023/12/10 00:56:11;;;;;;;0.60;0.60;;;;;;;16.57;59.34;98148.88;2073382;28;20103;-69
2023/12/10 00:57:13;;;;;;;;;;;;;;;16.47;59.59;98156.47;2066805;28;20057;-70
2023/12/10 00:58:14;;;;;;;0.50;0.50;;;;;;;16.49;59.64;98160.59;2067227;28;19925;-69
2023/12/10 00:59:16;;;;;;;;;;;;;;;16.40;59.67;98150.25;2065948;28;20418;-69
2023/12/10 01:00:17;;;;;;;1.15;0.70;;;;;;;16.43;59.71;98160.56;2068865;28;19989;-68
2023/12/10 01:01:19;;;;;;;0.80;0.73;;;;;;;16.49;59.53;98159.75;2067523;28;20597;-69
2023/12/10 01:02:20;;;;;;;0.77;0.50;;;;;;;16.53;59.47;98166.38;2067155;28;20058;-69
2023/12/10 01:03:23;;;;;;;;;;;;;;;16.43;59.62;98165.91;2066892;28;20064;-69
2023/12/10 01:04:24;;;;;;;0.68;0.60;;;;;;;16.47;59.52;98159.16;2067001;28;19975;-72
2023/12/10 01:05:26;;;;;;;;;;;;;;;16.38;59.65;98157.66;2071663;28;20057;-70
2023/12/10 01:06:27;;;;;;;1.25;0.60;;;;;;;16.42;59.70;98164.28;2068252;28;19921;-69
2023/12/10 01:07:29;;;;;;;;;;;;;;;16.39;59.68;98164.69;2066466;28;20045;-68
2023/12/10 01:08:30;;;;;;;1.02;0.98;;;;;;;16.43;59.61;98168.59;2068634;28;19922;-69
2023/12/10 01:09:34;;;;;;;1.13;1.02;;;;;;;16.45;59.51;98158.53;2066358;28;20052;-68
2023/12/10 01:10:35;;;;;;;0.75;0.70;;;;;;;16.46;59.50;98160.97;2069769;28;20042;-68
2023/12/10 01:11:36;;;;;;;;;;;;;;;16.35;59.70;98156.22;2065146;28;20053;-68
2023/12/10 01:12:38;;;;;;;0.50;0.50;;;;;;;16.39;59.75;98164.69;2067190;28;19926;-70
2023/12/10 01:13:39;;;;;;;0.45;0.40;;;;;;;16.41;59.57;98151.91;2068343;28;20413;-69
2023/12/10 01:14:44;;;;;;;0.80;0.63;;;;;;;16.42;59.56;98142.88;2067293;28;20046;-68
2023/12/10 01:15:44;;;;;;;0.90;0.85;;;;;;;16.43;59.52;98144.50;2067601;28;20042;-70
2023/12/10 01:16:46;;;;;;;;;;;;;;;16.30;59.75;98140.78;2068448;28;20162;-69
2023/12/10 01:17:47;;;;;;;;;;;;;;;16.24;59.92;98146.94;2067794;28;19921;-69
2023/12/10 01:18:49;;;;;;;1.70;0.75;;;;;;;16.30;59.78;98134.59;2068086;28;19983;-69
2023/12/10 01:19:51;;;;;;;0.82;0.60;;;;;;;16.35;59.71;98136.66;2072474;28;20053;-69
2023/12/10 01:20:52;;;;;;;0.57;0.50;;;;;;;16.37;59.43;98140.78;2066209;28;20047;-70
2023/12/10 01:21:54;;;;;;;;;;;;;;;16.29;59.77;98141.78;2064012;28;20432;-69
2023/12/10 01:22:55;;;;;;;1.33;0.70;;;;;;;16.36;59.53;98141.00;2068667;28;19975;-70
2023/12/10 01:23:57;;;;;;;0.75;0.73;;;;;;;16.37;59.59;98146.13;2074216;28;20052;-69
2023/12/10 01:24:58;;;;;;;1.60;0.88;;;;;;;16.39;59.56;98149.44;2077883;28;20049;-70
2023/12/10 01:26:00;;;;;;;1.02;0.90;;;;;;;16.38;59.55;98155.84;2068892;28;20726;-69
2023/12/10 01:27:01;;;;;;;1.25;0.68;;;;;;;16.37;59.55;98161.38;2068490;28;20107;-71
2023/12/10 01:28:03;;;;;;;;;;;;;;;16.27;59.75;98151.88;2075198;28;20123;-67
2023/12/10 01:29:04;;;;;;;0.70;0.60;;;;;;;16.25;59.82;98159.28;2067154;28;20392;-70
2023/12/10 01:30:07;;;;;;;0.90;0.65;;;;;;;16.30;59.66;98154.16;2078315;28;20071;-71
2023/12/10 01:31:08;;;;;;;0.80;0.50;;;;;;;16.29;59.75;98147.13;2073134;28;20114;-70
2023/12/10 01:32:10;;;;;;;;;;;;;;;16.19;59.88;98144.03;2072010;28;20053;-69
2023/12/10 01:33:11;;;;;;;0.70;0.50;;;;;;;16.23;59.86;98145.25;2071005;28;20308;-70
2023/12/10 01:34:15;;;;;;;1.33;0.70;;;;;;;16.28;59.70;98142.81;2075173;28;20049;-70
2023/12/10 01:35:15;;;;;;;1.35;0.65;;;;;;;16.26;59.71;98147.53;2069241;28;20050;-69
2023/12/10 01:36:23;;;;;;;;;;;;;;;16.15;59.94;98144.59;2066245;28;20148;-69
2023/12/10 01:37:24;;;;;;;1.13;0.60;;;;;;;16.19;59.83;98138.66;2072439;28;19928;-69
2023/12/10 01:38:26;;;;;;;;;;;;;;;16.11;60.04;98141.50;2074933;28;20050;-69
2023/12/10 01:39:27;;;;;;;;;;;;;;;16.03;60.37;98137.16;2075857;28;20576;-68
2023/12/10 01:40:27;;;;;;;0.68;0.68;;;;;;;16.08;60.29;98136.56;2076733;28;19924;-69
2023/12/10 01:41:29;;;;;;;;;;;;;;;16.04;60.36;98136.13;2074779;28;20095;-69
2023/12/10 01:42:30;;;;;;;0.57;0.45;;;;;;;16.10;60.12;98137.16;2076901;28;19929;-69
2023/12/10 01:43:31;;;;;;;;;;;;;;;16.02;60.30;98127.50;2077483;28;20508;-68
2023/12/10 01:44:33;;;;;;;0.80;0.73;;;;;;;16.08;60.22;98125.88;2077993;28;19921;-69
2023/12/10 01:45:33;;;;;;;0.40;0.30;;;;;;;16.14;60.02;98134.94;2078026;28;20041;-69
2023/12/10 01:46:35;;;;;;;;;;;;;;;16.06;60.11;98133.25;2075936;28;20101;-69
2023/12/10 01:47:38;;;;;;;;;;;;;;;15.97;60.40;98129.09;2076633;28;19936;-68
2023/12/10 01:48:42;;;;;;;0.68;0.55;;;;;;;16.06;60.10;98117.22;2074927;28;19959;-71
2023/12/10 01:49:45;;;;;;;1.23;0.60;;;;;;;16.12;60.01;98123.59;2076064;28;20042;-68
2023/12/10 01:50:48;;;;;;;1.27;0.60;;;;;;;16.11;59.97;98120.13;2074078;28;20049;-69
2023/12/10 01:51:50;;;;;;;0.43;0.40;;;;;;;16.14;59.86;98126.91;2075508;28;20115;-69
2023/12/10 01:52:51;;;;;;;0.63;0.60;;;;;;;16.14;59.80;98132.28;2072848;28;20124;-69
2023/12/10 01:53:53;;;;;;;0.55;0.52;;;;;;;16.14;59.94;98126.91;2075756;28;20041;-70
2023/12/10 01:54:54;;;;;;;0.90;0.77;;;;;;;16.12;59.87;98129.78;2073434;28;20772;-69
2023/12/10 01:55:56;;;;;;;;;;;;;;;16.00;60.21;98126.84;2073647;28;20045;-68
2023/12/10 01:56:57;;;;;;;1.10;0.50;;;;;;;16.01;60.07;98130.34;2074513;28;19924;-69
2023/12/10 01:58:00;;;;;;;0.55;0.40;;;;;;;16.05;60.07;98126.28;2072582;28;20057;-68
2023/12/10 01:59:01;;;;;;;1.60;0.63;;;;;;;16.07;60.01;98130.41;2067591;28;20449;-69
2023/12/10 02:00:05;;;;;;;0.73;0.40;;;;;;;16.07;60.06;98124.19;2065184;28;20038;-69
2023/12/10 02:01:07;;;;;;;1.67;0.98;;;;;;;16.06;59.93;98120.69;2066243;28;20085;-68
2023/12/10 02:02:12;;;;;;;0.93;0.65;;;;;;;16.06;59.94;98120.69;2066301;28;20394;-68
2023/12/10 02:03:14;;;;;;;1.45;0.65;;;;;;;16.04;60.04;98114.72;2065690;28;20161;-69
2023/12/10 02:04:17;;;;;;;0.85;0.50;;;;;;;16.05;59.95;98115.56;2067055;28;20901;-69
2023/12/10 02:05:19;;;;;;;0.47;0.45;;;;;;;16.04;60.02;98124.59;2068184;28;20501;-68
2023/12/10 02:06:22;;;;;;;0.90;0.52;;;;;;;16.03;60.07;98123.78;2067039;28;20053;-70
2023/12/10 02:07:23;;;;;;;0.47;0.40;;;;;;;16.04;59.96;98114.72;2066529;28;20054;-69
2023/12/10 02:08:23;;;;;;;;;;;;;;;15.92;60.43;98104.81;2067803;28;21009;-69
2023/12/10 02:09:26;;;;;;;1.00;0.65;;;;;;;15.93;60.33;98109.94;2065872;28;19937;-70
2023/12/10 02:10:27;;;;;;;0.93;0.70;;;;;;;15.98;60.26;98104.00;2065117;28;20128;-69
2023/12/10 02:11:28;;;;;;;;;;;;;;;15.89;60.45;98113.22;2067272;28;20046;-69
2023/12/10 02:12:31;;;;;;;1.55;0.88;;;;;;;15.92;60.35;98107.47;2066415;28;19949;-71
2023/12/10 02:13:33;;;;;;;1.05;0.73;;;;;;;15.97;60.14;98113.88;2064899;28;20041;-69
2023/12/10 02:14:34;;;;;;;2.13;0.40;;;;;;;15.99;60.07;98108.31;2070442;28;20045;-69
2023/12/10 02:15:36;;;;;;;;;;;;;;;15.89;60.32;98115.91;2073527;28;20049;-69
2023/12/10 02:16:36;;;;;;;;;;;;;;;15.79;60.68;98108.22;2069252;28;20012;-69
2023/12/10 02:17:38;;;;;;;0.93;0.70;;;;;;;15.83;60.43;98107.66;2070608;28;19924;-69
2023/12/10 02:18:39;;;;;;;1.58;0.75;;;;;;;15.90;60.53;98122.88;2068967;28;20473;-69
2023/12/10 02:19:41;;;;;;;;;;;;;;;15.81;60.56;98117.72;2066562;28;20100;-69
2023/12/10 02:20:43;;;;;;;;;;;;;;;15.77;60.58;98116.47;2070380;28;19921;-69
2023/12/10 02:21:47;;;;;;;1.15;0.50;;;;;;;15.82;60.58;98111.34;2069650;28;19929;-70
2023/12/10 02:23:00;;;;;;;1.55;0.60;;;;;;;15.88;60.28;98114.22;2062637;28;20049;-69
2023/12/10 02:24:05;;;;;;;0.50;0.47;;;;;;;15.91;60.19;98119.19;2069627;28;20088;-69
2023/12/10 02:25:09;;;;;;;0.93;0.80;;;;;;;15.92;60.15;98113.66;2074015;28;20052;-68
2023/12/10 02:26:12;;;;;;;0.52;0.38;;;;;;;15.94;60.18;98116.13;2068464;28;20049;-69
2023/12/10 02:27:13;;;;;;;0.68;0.60;;;;;;;15.94;59.97;98110.78;2063613;28;20054;-70
2023/12/10 02:28:21;;;;;;;;;;;;;;;15.82;60.40;98110.50;2067409;28;20813;-69
2023/12/10 02:29:23;;;;;;;1.38;0.88;;;;;;;15.81;60.43;98107.00;2068043;28;20384;-70
2023/12/10 02:30:25;;;;;;;0.55;0.55;;;;;;;15.86;60.35;98104.56;2071488;28;20095;-70
2023/12/10 02:31:26;;;;;;;0.65;0.50;;;;;;;15.91;60.24;98111.16;2065568;28;20086;-71
2023/12/10 02:32:28;;;;;;;0.52;0.52;;;;;;;15.95;60.12;98104.41;2064744;28;20042;-69
2023/12/10 02:33:29;;;;;;;1.30;0.55;;;;;;;15.94;59.97;98108.13;2070696;28;20135;-69
2023/12/10 02:34:31;;;;;;;;;;;;;;;15.81;60.34;98107.00;2076322;28;20523;-70
2023/12/10 02:35:32;;;;;;;0.90;0.60;;;;;;;15.84;60.22;98108.47;2069010;28;19925;-69
2023/12/10 02:36:32;;;;;;;;;;;;;;;15.75;60.55;98110.47;2065436;28;20084;-69
2023/12/10 02:37:34;;;;;;;0.50;0.50;;;;;;;15.79;60.54;98105.56;2069888;28;19921;-69
2023/12/10 02:38:35;;;;;;;0.60;0.60;;;;;;;15.84;60.33;98098.59;2076108;28;20038;-68
2023/12/10 02:39:37;;;;;;;;;;;;;;;15.74;60.55;98108.84;2075836;28;20049;-69
2023/12/10 02:40:38;;;;;;;0.52;0.52;;;;;;;15.78;60.40;98103.91;2071759;28;20354;-69
2023/12/10 02:41:41;;;;;;;;;;;;;;;15.70;60.68;98109.44;2068574;28;20104;-69
2023/12/10 02:42:42;;;;;;;0.43;0.40;;;;;;;15.77;60.59;98104.94;2066275;28;19925;-71
2023/12/10 02:43:44;;;;;;;;;;;;;;;15.71;60.58;98101.22;2067329;28;20092;-69
2023/12/10 02:44:44;;;;;;;1.00;0.90;;;;;;;15.77;60.52;98110.31;2067996;28;19934;-69
2023/12/10 02:45:46;;;;;;;;;;;;;;;15.70;60.63;98102.22;2067403;28;20227;-69
2023/12/10 02:46:48;;;;;;;0.40;0.40;;;;;;;15.75;60.43;98094.44;2068481;28;19921;-69
2023/12/10 02:47:50;;;;;;;0.77;0.75;;;;;;;15.76;60.24;98101.44;2068113;28;20041;-69
2023/12/10 02:48:51;;;;;;;1.08;0.50;;;;;;;15.79;60.22;98084.97;2069744;28;20463;-70
2023/12/10 02:49:52;;;;;;;;;;;;;;;15.69;60.54;98087.22;2066761;28;20085;-69
2023/12/10 02:50:55;;;;;;;;;;;;;;;15.62;60.80;98094.34;2067249;28;19929;-69
2023/12/10 02:51:56;;;;;;;1.58;0.68;;;;;;;15.69;60.69;98087.22;2066279;28;19922;-69
2023/12/10 02:52:57;;;;;;;2.72;0.73;;;;;;;15.74;60.45;98084.78;2066250;28;20121;-68
2023/12/10 02:53:59;;;;;;;;;;;;;;;15.65;60.70;98085.91;2066823;28;20625;-69
2023/12/10 02:55:00;;;;;;;0.63;0.47;;;;;;;15.72;60.58;98091.34;2065755;28;19929;-70
2023/12/10 02:56:02;;;;;;;;;;;;;;;15.63;60.72;98087.97;2070125;28;20112;-68
2023/12/10 02:57:04;;;;;;;1.25;0.80;;;;;;;15.69;60.57;98087.22;2076688;28;19975;-69
2023/12/10 02:58:06;;;;;;;0.85;0.65;;;;;;;15.72;60.50;98086.00;2068693;28;20051;-69
2023/12/10 02:59:07;;;;;;;1.23;0.70;;;;;;;15.76;60.22;98080.03;2068699;28;20053;-70
2023/12/10 03:00:10;;;;;;;;;;;;;;;15.66;60.57;98082.22;2066190;28;20127;-72
2023/12/10 03:01:12;;;;;;;0.90;0.90;;;;;;;15.69;60.45;98081.88;2067951;28;19921;-69
2023/12/10 03:02:14;;;;;;;0.65;0.57;;;;;;;15.75;60.31;98082.94;2068118;28;20137;-70
2023/12/10 03:03:15;;;;;;;0.65;0.50;;;;;;;15.75;60.22;98098.97;2070076;28;20053;-69
2023/12/10 03:04:16;;;;;;;;;;;;;;;15.65;60.43;98084.06;2068040;28;20045;-70
2023/12/10 03:05:18;;;;;;;1.07;0.50;;;;;;;15.68;60.61;98092.72;2069757;28;19947;-70
2023/12/10 03:06:19;;;;;;;0.65;0.40;;;;;;;15.73;60.39;98092.97;2068712;28;20096;-70
2023/12/10 03:07:21;;;;;;;;;;;;;;;15.63;60.59;98085.31;2069410;28;20062;-71
2023/12/10 03:08:22;;;;;;;1.27;0.50;;;;;;;15.68;60.54;98082.88;2067000;28;24774;-69
2023/12/10 03:09:23;;;;;;;;;;;;;;;15.58;60.75;98091.22;2068320;28;20697;-69
2023/12/10 03:10:24;;;;;;;;;;;;;;;15.52;60.82;98096.56;2067331;28;20311;-69
2023/12/10 03:11:25;;;;;;;0.68;0.60;;;;;;;15.56;60.73;98098.63;2070336;28;19925;-70
2023/12/10 03:12:28;;;;;;;;;;;;;;;15.54;60.84;98097.16;2072829;28;20045;-70
2023/12/10 03:13:29;;;;;;;0.50;0.50;;;;;;;15.61;60.68;98100.72;2067889;28;19994;-69
2023/12/10 03:14:31;;;;;;;;;;;;;;;15.53;60.79;98096.34;2067990;28;20079;-69
2023/12/10 03:15:32;;;;;;;0.50;0.50;;;;;;;15.58;60.77;98101.94;2069162;28;19929;-69
2023/12/10 03:16:34;;;;;;;;;;;;;;;15.54;60.88;98116.69;2070096;28;20112;-71
2023/12/10 03:17:34;;;;;;;;;;;;;;;15.49;60.99;98105.78;2070209;28;19953;-68
2023/12/10 03:18:36;;;;;;;0.47;0.47;;;;;;;15.55;60.93;98104.19;2066882;28;20365;-68
2023/12/10 03:19:38;;;;;;;0.43;0.40;;;;;;;15.59;60.64;98094.72;2067607;28;20100;-69
2023/12/10 03:20:40;;;;;;;1.05;0.50;;;;;;;15.62;60.59;98092.47;2068590;28;20061;-69
2023/12/10 03:21:41;;;;;;;0.68;0.40;;;;;;;15.64;60.40;98082.41;2066091;28;20051;-69
2023/12/10 03:22:42;;;;;;;;;;;;;;;15.56;60.81;98082.56;2068593;28;20050;-71
2023/12/10 03:23:43;;;;;;;;;;;;;;;15.45;60.90;98091.16;2074374;28;19979;-70
2023/12/10 03:24:44;;;;;;;0.60;0.60;;;;;;;15.52;60.94;98100.03;2070952;28;20347;-71
2023/12/10 03:25:45;;;;;;;;;;;;;;;15.49;60.92;98104.94;2068212;28;20049;-70
2023/12/10 03:26:46;;;;;;;0.40;0.40;;;;;;;15.51;60.84;98105.56;2066225;28;20379;-68
2023/12/10 03:27:49;;;;;;;;;;;;;;;15.46;60.96;98097.31;2073983;28;20100;-70
2023/12/10 03:28:50;;;;;;;0.55;0.50;;;;;;;15.52;60.88;98091.22;2068612;28;19929;-69
2023/12/10 03:29:52;;;;;;;;;;;;;;;15.46;60.92;98100.00;2067546;28;20416;-70
2023/12/10 03:30:53;;;;;;;;;;;;;;;15.40;61.06;98089.06;2069312;28;20016;-69
2023/12/10 03:31:55;;;;;;;0.82;0.50;;;;;;;15.48;60.89;98101.44;2068979;28;20339;-70
2023/12/10 03:32:56;;;;;;;0.57;0.40;;;;;;;15.54;60.63;98102.50;2068412;28;20054;-70
2023/12/10 03:33:56;;;;;;;;;;;;;;;15.49;60.77;98092.44;2067880;28;20046;-69
2023/12/10 03:34:58;;;;;;;0.80;0.80;;;;;;;15.56;60.72;98084.44;2068719;28;19964;-69
2023/12/10 03:35:59;;;;;;;0.60;0.55;;;;;;;15.65;60.31;98099.28;2067706;28;20425;-69
2023/12/10 03:37:01;;;;;;;;;;;;;;;15.62;60.19;98099.69;2069670;28;20042;-71
2023/12/10 03:38:02;;;;;;;0.70;0.70;;;;;;;15.68;60.39;98093.56;2074811;28;19921;-66
2023/12/10 03:39:02;;;;;;;;;;;;;;;15.63;60.21;98104.03;2068328;28;20052;-67
2023/12/10 03:40:05;;;;;;;0.97;0.70;;;;;;;15.68;60.15;98106.94;2067621;28;19921;-68
2023/12/10 03:41:06;;;;;;;0.95;0.50;;;;;;;15.73;59.94;98103.69;2066551;28;20336;-69
2023/12/10 03:42:08;;;;;;;;;;;;;;;15.68;60.10;98108.75;2069581;28;20627;-69
2023/12/10 03:43:10;;;;;;;0.63;0.50;;;;;;;15.73;60.07;98101.81;2066427;28;19926;-71
2023/12/10 03:44:12;;;;;;;0.93;0.65;;;;;;;15.76;59.91;98111.31;2067843;28;20057;-70
2023/12/10 03:45:14;;;;;;;0.50;0.50;;;;;;;15.80;59.84;98112.56;2067367;28;20124;-70
2023/12/10 03:46:16;;;;;;;0.70;0.43;;;;;;;15.81;59.58;98108.88;2071224;28;20142;-70
2023/12/10 03:47:17;;;;;;;0.55;0.43;;;;;;;15.80;59.63;98118.75;2069421;28;20049;-70
2023/12/10 03:48:18;;;;;;;;;;;;;;;15.74;59.83;98108.00;2073348;28;20046;-70
2023/12/10 03:49:19;;;;;;;0.60;0.60;;;;;;;15.77;59.93;98113.78;2067933;28;19996;-70
2023/12/10 03:50:21;;;;;;;;;;;;;;;15.70;60.04;98120.13;2067849;28;20469;-69
2023/12/10 03:51:22;;;;;;;;;;;;;;;15.65;60.26;98120.66;2065642;28;20438;-70
2023/12/10 03:52:24;;;;;;;1.55;0.47;;;;;;;15.68;60.31;98125.66;2068098;28;19936;-70
2023/12/10 03:53:24;;;;;;;0.57;0.40;;;;;;;15.75;60.08;98115.84;2067807;28;20618;-69
2023/12/10 03:54:26;;;;;;;;;;;;;;;15.69;59.97;98105.94;2067972;28;20049;-69
2023/12/10 03:55:27;;;;;;;;;;;;;;;15.62;60.24;98105.03;2065444;28;19972;-69
2023/12/10 03:56:29;;;;;;;0.32;0.30;;;;;;;15.65;60.13;98104.63;2069767;28;19983;-71
2023/12/10 03:57:30;;;;;;;0.50;0.50;;;;;;;15.74;59.93;98114.19;2072127;28;20046;-70
2023/12/10 03:58:33;;;;;;;;;;;;;;;15.68;60.06;98114.94;2077902;28;20151;-70
2023/12/10 03:59:34;;;;;;;0.90;0.50;;;;;;;15.73;60.09;98117.03;2076125;28;19921;-70
2023/12/10 04:00:35;;;;;;;;;;;;;;;15.66;60.08;98125.00;2076195;28;20065;-70
2023/12/10 04:01:36;;;;;;;0.40;0.32;;;;;;;15.73;60.08;98131.22;2076127;28;20468;-69
2023/12/10 04:02:38;;;;;;;;;;;;;;;15.66;60.16;98135.69;2072797;28;20092;-69
2023/12/10 04:03:39;;;;;;;0.77;0.40;;;;;;;15.71;60.03;98137.81;2072826;28;19929;-69
2023/12/10 04:04:41;;;;;;;;;;;;;;;15.63;60.19;98136.91;2079704;28;20125;-69
2023/12/10 04:05:42;;;;;;;1.10;0.70;;;;;;;15.71;59.74;98137.81;2068994;28;20450;-72
2023/12/10 04:06:43;;;;;;;;;;;;;;;15.66;60.28;98138.38;2068845;28;20096;-70
2023/12/10 04:07:47;;;;;;;0.45;0.38;;;;;;;15.72;59.93;98150.97;2068011;28;19926;-69
2023/12/10 04:08:49;;;;;;;0.40;0.30;;;;;;;15.75;60.03;98155.94;2067262;28;20539;-69
2023/12/10 04:09:50;;;;;;;0.55;0.50;;;;;;;15.78;59.87;98160.06;2073651;28;20049;-69
2023/12/10 04:10:52;;;;;;;;;;;;;;;15.69;60.03;98163.94;2068686;28;20088;-69
2023/12/10 04:11:55;;;;;;;0.40;0.40;;;;;;;15.73;60.01;98163.31;2073994;28;20090;-69
2023/12/10 04:12:57;;;;;;;0.43;0.43;;;;;;;15.76;59.90;98162.94;2075196;28;20129;-69
2023/12/10 04:14:00;;;;;;;0.22;0.22;;;;;;;15.74;59.86;98162.31;2073416;28;20049;-69
2023/12/10 04:15:02;;;;;;;0.55;0.50;;;;;;;15.78;59.80;98174.25;2068594;28;24059;-69
2023/12/10 04:16:03;;;;;;;0.63;0.40;;;;;;;15.79;59.63;98181.25;2074883;28;20057;-68
2023/12/10 04:17:06;;;;;;;0.43;0.40;;;;;;;15.80;59.71;98172.22;2073835;28;20053;-69
2023/12/10 04:18:07;;;;;;;0.70;0.70;;;;;;;15.79;59.77;98181.25;2073037;28;20061;-69
2023/12/10 04:19:08;;;;;;;;;;;;;;;15.69;60.12;98179.97;2077464;28;20076;-70
2023/12/10 04:20:11;;;;;;;0.63;0.63;;;;;;;15.70;60.10;98171.75;2067786;28;19929;-69
2023/12/10 04:21:12;;;;;;;0.50;0.50;;;;;;;15.75;59.89;98171.16;2068839;28;20131;-71
2023/12/10 04:22:13;;;;;;;;;;;;;;;15.64;60.13;98177.84;2068031;28;20104;-70
2023/12/10 04:23:14;;;;;;;;;;;;;;;15.55;60.38;98179.84;2069124;28;19976;-69
2023/12/10 04:24:15;;;;;;;0.63;0.60;;;;;;;15.60;60.32;98173.88;2065521;28;19929;-70
2023/12/10 04:25:17;;;;;;;0.70;0.63;;;;;;;15.66;60.17;98165.13;2069471;28;20081;-69
2023/12/10 04:26:18;;;;;;;0.73;0.73;;;;;;;15.69;60.20;98169.28;2074837;28;20569;-69
2023/12/10 04:27:22;;;;;;;;;;;;;;;15.57;60.52;98171.59;2076590;28;20091;-70
2023/12/10 04:28:23;;;;;;;0.60;0.60;;;;;;;15.62;60.40;98174.53;2075670;28;20007;-71
2023/12/10 04:29:26;;;;;;;;;;;;;;;15.54;60.48;98164.81;2071471;28;20056;-69
2023/12/10 04:30:27;;;;;;;0.45;0.30;;;;;;;15.61;60.34;98167.53;2066646;28;19930;-71
2023/12/10 04:31:29;;;;;;;;;;;;;;;15.55;60.39;98162.97;2065771;28;20422;-69
2023/12/10 04:32:31;;;;;;;0.85;0.60;;;;;;;15.60;60.17;98165.88;2069453;28;19929;-69
2023/12/10 04:33:33;;;;;;;0.88;0.68;;;;;;;15.66;60.11;98165.13;2066875;28;20133;-70
2023/12/10 04:34:35;;;;;;;0.85;0.57;;;;;;;15.69;60.12;98164.75;2066258;28;20181;-69
2023/12/10 04:35:37;;;;;;;0.40;0.32;;;;;;;15.68;60.11;98179.13;2069069;28;20543;-69
2023/12/10 04:36:39;;;;;;;0.32;0.30;;;;;;;15.68;60.16;98167.56;2068183;28;20045;-72
2023/12/10 04:37:40;;;;;;;0.55;0.50;;;;;;;15.68;60.10;98172.91;2066488;28;20403;-69
2023/12/10 04:38:41;;;;;;;;;;;;;;;15.57;60.43;98187.66;2065993;28;20104;-74
2023/12/10 04:39:42;;;;;;;0.60;0.50;;;;;;;15.59;60.31;98190.97;2074983;28;19978;-69
2023/12/10 04:40:44;;;;;;;;;;;;;;;15.51;60.48;98183.91;2074603;28;20041;-70
2023/12/10 04:41:45;;;;;;;0.60;0.45;;;;;;;15.57;60.35;98176.94;2070729;28;20380;-69
2023/12/10 04:42:46;;;;;;;;;;;;;;;15.48;60.76;98173.59;2067663;28;20046;-70
2023/12/10 04:43:48;;;;;;;;;;;;;;;15.43;60.73;98173.34;2074912;28;19921;-69
2023/12/10 04:44:52;;;;;;;0.73;0.63;;;;;;;15.49;60.60;98180.63;2068781;28;21282;-71
2023/12/10 04:45:53;;;;;;;0.40;0.38;;;;;;;15.56;60.61;98186.00;2065886;28;20037;-71
2023/12/10 04:46:55;;;;;;;;;;;;;;;15.49;60.55;98185.97;2066726;28;20042;-71
2023/12/10 04:47:55;;;;;;;0.22;0.20;;;;;;;15.53;60.68;98191.75;2066440;28;20434;-69
2023/12/10 04:48:57;;;;;;;;;;;;;;;15.47;60.56;98189.84;2069160;28;20054;-68
2023/12/10 04:49:59;;;;;;;0.38;0.38;;;;;;;15.50;60.38;98187.59;2067373;28;20368;-69
2023/12/10 04:51:01;;;;;;;0.68;0.47;;;;;;;15.55;60.51;98193.22;2066841;28;20064;-69
2023/12/10 04:52:03;;;;;;;0.68;0.35;;;;;;;15.59;60.36;98180.28;2075756;28;20049;-70
2023/12/10 04:53:05;;;;;;;0.65;0.40;;;;;;;15.60;60.13;98176.56;2068389;28;20050;-72
2023/12/10 04:54:05;;;;;;;0.70;0.52;;;;;;;15.58;60.18;98178.63;2067082;28;20717;-69
2023/12/10 04:55:07;;;;;;;;;;;;;;;15.48;60.52;98173.59;2076218;28;20098;-68
2023/12/10 04:56:10;;;;;;;0.85;0.50;;;;;;;15.53;60.33;98183.72;2072145;28;19932;-69
2023/12/10 04:57:12;;;;;;;0.80;0.45;;;;;;;15.55;60.45;98184.38;2074269;28;20053;-69
2023/12/10 04:58:12;;;;;;;0.43;0.35;;;;;;;15.55;60.28;98184.38;2066564;28;20456;-69
2023/12/10 04:59:15;;;;;;;0.70;0.70;;;;;;;15.58;60.29;98183.97;2065498;28;20767;-72
2023/12/10 05:00:17;;;;;;;0.50;0.35;;;;;;;15.57;60.16;98180.47;2068068;28;20103;-69